sensor_id;sensor_type;location;lat;lon;timestamp;pressure;altitude;pressure_sealevel;temperature
48894;BMP280;34710;35.798;139.446;2022-07-23T00:02:27;99127.99;;;36.92
48894;BMP280;34710;35.798;139.446;2022-07-23T00:04:56;99130.77;;;37.28
48894;BMP280;34710;35.798;139.446;2022-07-23T00:07:26;99128.92;;;37.47
48894;BMP280;34710;35.798;139.446;2022-07-23T00:09:55;99124.73;;;37.79
48894;BMP280;34710;35.798;139.446;2022-07-23T00:12:25;99122.27;;;37.86
48894;BMP280;34710;35.798;139.446;2022-07-23T00:14:54;99118.30;;;38.19
48894;BMP280;34710;35.798;139.446;2022-07-23T00:17:23;99117.43;;;38.17
48894;BMP280;34710;35.798;139.446;2022-07-23T00:19:52;99121.75;;;37.76
48894;BMP280;34710;35.798;139.446;2022-07-23T00:22:22;99121.24;;;37.84
48894;BMP280;34710;35.798;139.446;2022-07-23T00:24:51;99122.19;;;38.09
48894;BMP280;34710;35.798;139.446;2022-07-23T00:27:20;99122.19;;;38.06
48894;BMP280;34710;35.798;139.446;2022-07-23T00:29:50;99121.85;;;38.43
48894;BMP280;34710;35.798;139.446;2022-07-23T00:32:19;99124.33;;;38.70
48894;BMP280;34710;35.798;139.446;2022-07-23T00:34:47;99122.40;;;39.09
48894;BMP280;34710;35.798;139.446;2022-07-23T00:37:16;99122.10;;;39.27
48894;BMP280;34710;35.798;139.446;2022-07-23T00:39:46;99121.16;;;39.10
48894;BMP280;34710;35.798;139.446;2022-07-23T00:42:15;99120.79;;;37.51
48894;BMP280;34710;35.798;139.446;2022-07-23T00:44:44;99114.09;;;37.19
48894;BMP280;34710;35.798;139.446;2022-07-23T00:47:14;99113.51;;;38.01
48894;BMP280;34710;35.798;139.446;2022-07-23T00:49:43;99115.85;;;38.22
48894;BMP280;34710;35.798;139.446;2022-07-23T00:52:12;99112.80;;;39.05
48894;BMP280;34710;35.798;139.446;2022-07-23T00:54:41;99115.49;;;39.44
48894;BMP280;34710;35.798;139.446;2022-07-23T00:57:10;99117.84;;;39.66
48894;BMP280;34710;35.798;139.446;2022-07-23T00:59:40;99114.09;;;40.11
48894;BMP280;34710;35.798;139.446;2022-07-23T01:02:10;99118.68;;;39.86
48894;BMP280;34710;35.798;139.446;2022-07-23T01:04:41;99115.04;;;39.73
48894;BMP280;34710;35.798;139.446;2022-07-23T01:07:11;99119.02;;;39.76
48894;BMP280;34710;35.798;139.446;2022-07-23T01:09:42;99114.54;;;39.39
48894;BMP280;34710;35.798;139.446;2022-07-23T01:12:12;99116.05;;;38.79
48894;BMP280;34710;35.798;139.446;2022-07-23T01:14:42;99115.22;;;39.17
48894;BMP280;34710;35.798;139.446;2022-07-23T01:17:10;99120.33;;;39.91
48894;BMP280;34710;35.798;139.446;2022-07-23T01:19:40;99118.58;;;39.29
48894;BMP280;34710;35.798;139.446;2022-07-23T01:22:10;99124.54;;;39.67
48894;BMP280;34710;35.798;139.446;2022-07-23T01:24:40;99125.48;;;39.40
48894;BMP280;34710;35.798;139.446;2022-07-23T01:27:08;99127.13;;;39.54
48894;BMP280;34710;35.798;139.446;2022-07-23T01:29:38;99128.28;;;40.19
48894;BMP280;34710;35.798;139.446;2022-07-23T01:32:07;99128.84;;;38.70
48894;BMP280;34710;35.798;139.446;2022-07-23T01:34:36;99130.92;;;38.66
48894;BMP280;34710;35.798;139.446;2022-07-23T01:37:06;99124.25;;;38.30
48894;BMP280;34710;35.798;139.446;2022-07-23T01:39:35;99124.10;;;36.92
48894;BMP280;34710;35.798;139.446;2022-07-23T01:42:05;99124.10;;;37.32
48894;BMP280;34710;35.798;139.446;2022-07-23T01:44:34;99122.82;;;36.17
48894;BMP280;34710;35.798;139.446;2022-07-23T01:47:04;99124.97;;;37.06
48894;BMP280;34710;35.798;139.446;2022-07-23T01:49:34;99123.09;;;37.93
48894;BMP280;34710;35.798;139.446;2022-07-23T01:52:03;99123.97;;;37.82
48894;BMP280;34710;35.798;139.446;2022-07-23T01:54:34;99119.79;;;39.00
48894;BMP280;34710;35.798;139.446;2022-07-23T01:57:03;99120.32;;;38.02
48894;BMP280;34710;35.798;139.446;2022-07-23T01:59:32;99119.55;;;38.68
48894;BMP280;34710;35.798;139.446;2022-07-23T02:02:01;99117.90;;;39.35
48894;BMP280;34710;35.798;139.446;2022-07-23T02:04:31;99118.74;;;39.56
48894;BMP280;34710;35.798;139.446;2022-07-23T02:07:00;99122.92;;;40.32
48894;BMP280;34710;35.798;139.446;2022-07-23T02:09:30;99123.71;;;40.75
48894;BMP280;34710;35.798;139.446;2022-07-23T02:12:00;99124.53;;;40.84
48894;BMP280;34710;35.798;139.446;2022-07-23T02:14:30;99119.06;;;41.34
48894;BMP280;34710;35.798;139.446;2022-07-23T02:16:59;99116.48;;;41.76
48894;BMP280;34710;35.798;139.446;2022-07-23T02:19:28;99119.04;;;42.22
48894;BMP280;34710;35.798;139.446;2022-07-23T02:21:57;99116.61;;;42.37
48894;BMP280;34710;35.798;139.446;2022-07-23T02:24:27;99111.75;;;42.66
48894;BMP280;34710;35.798;139.446;2022-07-23T02:26:56;99106.24;;;42.53
48894;BMP280;34710;35.798;139.446;2022-07-23T02:29:26;99105.81;;;42.84
48894;BMP280;34710;35.798;139.446;2022-07-23T02:31:55;99108.54;;;42.49
48894;BMP280;34710;35.798;139.446;2022-07-23T02:34:24;99108.27;;;42.75
48894;BMP280;34710;35.798;139.446;2022-07-23T02:36:53;99108.86;;;42.56
48894;BMP280;34710;35.798;139.446;2022-07-23T02:39:23;99105.23;;;42.92
48894;BMP280;34710;35.798;139.446;2022-07-23T02:41:52;99107.15;;;42.06
48894;BMP280;34710;35.798;139.446;2022-07-23T02:44:21;99112.49;;;42.78
48894;BMP280;34710;35.798;139.446;2022-07-23T02:46:51;99106.26;;;42.97
48894;BMP280;34710;35.798;139.446;2022-07-23T02:49:21;99105.33;;;40.66
48894;BMP280;34710;35.798;139.446;2022-07-23T02:51:50;99095.56;;;39.33
48894;BMP280;34710;35.798;139.446;2022-07-23T02:54:20;99093.43;;;39.58
48894;BMP280;34710;35.798;139.446;2022-07-23T02:56:49;99095.35;;;39.21
48894;BMP280;34710;35.798;139.446;2022-07-23T02:59:18;99095.69;;;39.69
48894;BMP280;34710;35.798;139.446;2022-07-23T03:01:47;99096.53;;;37.77
48894;BMP280;34710;35.798;139.446;2022-07-23T03:04:17;99093.17;;;38.74
48894;BMP280;34710;35.798;139.446;2022-07-23T03:06:46;99088.69;;;40.10
48894;BMP280;34710;35.798;139.446;2022-07-23T03:09:15;99085.36;;;40.03
48894;BMP280;34710;35.798;139.446;2022-07-23T03:11:45;99093.81;;;39.51
48894;BMP280;34710;35.798;139.446;2022-07-23T03:14:14;99095.20;;;38.43
48894;BMP280;34710;35.798;139.446;2022-07-23T03:16:44;99090.23;;;38.74
48894;BMP280;34710;35.798;139.446;2022-07-23T03:19:13;99085.30;;;39.17
48894;BMP280;34710;35.798;139.446;2022-07-23T03:21:42;99080.37;;;38.90
48894;BMP280;34710;35.798;139.446;2022-07-23T03:24:12;99082.45;;;36.68
48894;BMP280;34710;35.798;139.446;2022-07-23T03:26:42;99081.08;;;38.19
48894;BMP280;34710;35.798;139.446;2022-07-23T03:29:11;99084.95;;;37.97
48894;BMP280;34710;35.798;139.446;2022-07-23T03:31:40;99083.26;;;37.18
48894;BMP280;34710;35.798;139.446;2022-07-23T03:34:09;99080.76;;;38.59
48894;BMP280;34710;35.798;139.446;2022-07-23T03:36:39;99080.01;;;37.33
48894;BMP280;34710;35.798;139.446;2022-07-23T03:39:09;99081.21;;;36.42
48894;BMP280;34710;35.798;139.446;2022-07-23T03:41:38;99079.48;;;37.90
48894;BMP280;34710;35.798;139.446;2022-07-23T03:44:07;99079.42;;;38.03
48894;BMP280;34710;35.798;139.446;2022-07-23T03:46:37;99076.16;;;38.76
48894;BMP280;34710;35.798;139.446;2022-07-23T03:49:06;99074.70;;;39.81
48894;BMP280;34710;35.798;139.446;2022-07-23T03:51:35;99077.67;;;40.12
48894;BMP280;34710;35.798;139.446;2022-07-23T03:54:05;99078.66;;;40.27
48894;BMP280;34710;35.798;139.446;2022-07-23T03:56:34;99071.44;;;40.65
48894;BMP280;34710;35.798;139.446;2022-07-23T03:59:03;99074.65;;;41.39
48894;BMP280;34710;35.798;139.446;2022-07-23T04:01:33;99076.05;;;42.17
48894;BMP280;34710;35.798;139.446;2022-07-23T04:04:02;99074.53;;;42.52
48894;BMP280;34710;35.798;139.446;2022-07-23T04:06:32;99072.36;;;42.81
48894;BMP280;34710;35.798;139.446;2022-07-23T04:09:02;99070.28;;;43.21
48894;BMP280;34710;35.798;139.446;2022-07-23T04:11:31;99067.71;;;42.29
48894;BMP280;34710;35.798;139.446;2022-07-23T04:14:01;99069.75;;;42.33
48894;BMP280;34710;35.798;139.446;2022-07-23T04:16:31;99071.43;;;42.41
48894;BMP280;34710;35.798;139.446;2022-07-23T04:19:01;99074.68;;;41.50
48894;BMP280;34710;35.798;139.446;2022-07-23T04:21:31;99079.40;;;41.48
48894;BMP280;34710;35.798;139.446;2022-07-23T04:24:00;99079.92;;;40.63
48894;BMP280;34710;35.798;139.446;2022-07-23T04:26:29;99088.53;;;40.59
48894;BMP280;34710;35.798;139.446;2022-07-23T04:28:59;99087.88;;;40.94
48894;BMP280;34710;35.798;139.446;2022-07-23T04:31:28;99087.21;;;41.07
48894;BMP280;34710;35.798;139.446;2022-07-23T04:33:57;99080.18;;;41.69
48894;BMP280;34710;35.798;139.446;2022-07-23T04:36:27;99081.22;;;41.31
48894;BMP280;34710;35.798;139.446;2022-07-23T04:38:56;99080.04;;;41.70
48894;BMP280;34710;35.798;139.446;2022-07-23T04:41:25;99090.30;;;42.45
48894;BMP280;34710;35.798;139.446;2022-07-23T04:43:54;99089.20;;;42.56
48894;BMP280;34710;35.798;139.446;2022-07-23T04:46:24;99088.22;;;42.95
48894;BMP280;34710;35.798;139.446;2022-07-23T04:48:53;99088.38;;;43.14
48894;BMP280;34710;35.798;139.446;2022-07-23T04:51:23;99083.33;;;43.50
48894;BMP280;34710;35.798;139.446;2022-07-23T04:53:52;99084.92;;;43.16
48894;BMP280;34710;35.798;139.446;2022-07-23T04:56:22;99084.72;;;43.13
48894;BMP280;34710;35.798;139.446;2022-07-23T04:58:51;99085.98;;;42.68
48894;BMP280;34710;35.798;139.446;2022-07-23T05:01:21;99084.01;;;41.84
48894;BMP280;34710;35.798;139.446;2022-07-23T05:03:50;99086.00;;;42.16
48894;BMP280;34710;35.798;139.446;2022-07-23T05:06:19;99085.20;;;42.52
48894;BMP280;34710;35.798;139.446;2022-07-23T05:08:49;99093.30;;;41.47
48894;BMP280;34710;35.798;139.446;2022-07-23T05:11:19;99088.70;;;41.89
48894;BMP280;34710;35.798;139.446;2022-07-23T05:13:47;99089.67;;;41.26
48894;BMP280;34710;35.798;139.446;2022-07-23T05:16:17;99088.02;;;40.70
48894;BMP280;34710;35.798;139.446;2022-07-23T05:18:46;99092.99;;;40.71
48894;BMP280;34710;35.798;139.446;2022-07-23T05:21:16;99098.45;;;41.07
48894;BMP280;34710;35.798;139.446;2022-07-23T05:23:45;99100.84;;;41.13
48894;BMP280;34710;35.798;139.446;2022-07-23T05:26:14;99099.42;;;41.32
48894;BMP280;34710;35.798;139.446;2022-07-23T05:28:43;99100.46;;;39.98
48894;BMP280;34710;35.798;139.446;2022-07-23T05:31:13;99100.88;;;40.76
48894;BMP280;34710;35.798;139.446;2022-07-23T05:33:42;99099.91;;;40.80
48894;BMP280;34710;35.798;139.446;2022-07-23T05:36:11;99104.94;;;41.13
48894;BMP280;34710;35.798;139.446;2022-07-23T05:38:41;99105.25;;;41.29
48894;BMP280;34710;35.798;139.446;2022-07-23T05:41:10;99108.31;;;41.55
48894;BMP280;34710;35.798;139.446;2022-07-23T05:43:40;99110.05;;;41.53
48894;BMP280;34710;35.798;139.446;2022-07-23T05:46:09;99115.00;;;41.34
48894;BMP280;34710;35.798;139.446;2022-07-23T05:48:39;99115.11;;;40.89
48894;BMP280;34710;35.798;139.446;2022-07-23T05:51:08;99116.45;;;40.64
48894;BMP280;34710;35.798;139.446;2022-07-23T05:53:38;99121.85;;;40.47
48894;BMP280;34710;35.798;139.446;2022-07-23T05:56:07;99124.57;;;40.16
48894;BMP280;34710;35.798;139.446;2022-07-23T05:58:36;99131.05;;;38.22
48894;BMP280;34710;35.798;139.446;2022-07-23T06:01:06;99135.11;;;38.25
48894;BMP280;34710;35.798;139.446;2022-07-23T06:03:35;99136.66;;;38.31
48894;BMP280;34710;35.798;139.446;2022-07-23T06:06:04;99138.10;;;38.46
48894;BMP280;34710;35.798;139.446;2022-07-23T06:08:34;99135.11;;;36.64
48894;BMP280;34710;35.798;139.446;2022-07-23T06:11:02;99136.70;;;37.06
48894;BMP280;34710;35.798;139.446;2022-07-23T06:13:32;99141.58;;;36.57
48894;BMP280;34710;35.798;139.446;2022-07-23T06:16:02;99145.17;;;36.72
48894;BMP280;34710;35.798;139.446;2022-07-23T06:18:31;99145.72;;;36.16
48894;BMP280;34710;35.798;139.446;2022-07-23T06:21:00;99147.56;;;35.91
48894;BMP280;34710;35.798;139.446;2022-07-23T06:23:29;99149.23;;;35.79
48894;BMP280;34710;35.798;139.446;2022-07-23T06:25:58;99149.38;;;35.15
48894;BMP280;34710;35.798;139.446;2022-07-23T06:28:27;99149.30;;;36.00
48894;BMP280;34710;35.798;139.446;2022-07-23T06:30:56;99150.42;;;35.29
48894;BMP280;34710;35.798;139.446;2022-07-23T06:33:26;99155.78;;;35.24
48894;BMP280;34710;35.798;139.446;2022-07-23T06:35:55;99154.18;;;34.81
48894;BMP280;34710;35.798;139.446;2022-07-23T06:38:25;99149.55;;;35.09
48894;BMP280;34710;35.798;139.446;2022-07-23T06:40:54;99161.48;;;35.34
48894;BMP280;34710;35.798;139.446;2022-07-23T06:43:23;99167.31;;;35.06
48894;BMP280;34710;35.798;139.446;2022-07-23T06:45:54;99166.22;;;35.13
48894;BMP280;34710;35.798;139.446;2022-07-23T06:48:25;99159.23;;;35.16
48894;BMP280;34710;35.798;139.446;2022-07-23T06:50:54;99159.60;;;35.37
48894;BMP280;34710;35.798;139.446;2022-07-23T06:53:23;99169.47;;;35.95
48894;BMP280;34710;35.798;139.446;2022-07-23T06:55:53;99172.36;;;36.28
48894;BMP280;34710;35.798;139.446;2022-07-23T06:58:22;99177.18;;;36.18
48894;BMP280;34710;35.798;139.446;2022-07-23T07:00:51;99174.55;;;36.16
48894;BMP280;34710;35.798;139.446;2022-07-23T07:03:21;99178.02;;;34.70
48894;BMP280;34710;35.798;139.446;2022-07-23T07:05:50;99183.11;;;34.85
48894;BMP280;34710;35.798;139.446;2022-07-23T07:08:19;99189.37;;;33.52
48894;BMP280;34710;35.798;139.446;2022-07-23T07:10:48;99190.58;;;33.31
48894;BMP280;34710;35.798;139.446;2022-07-23T07:13:18;99193.13;;;33.76
48894;BMP280;34710;35.798;139.446;2022-07-23T07:15:47;99197.68;;;33.19
48894;BMP280;34710;35.798;139.446;2022-07-23T07:18:16;99201.84;;;33.00
48894;BMP280;34710;35.798;139.446;2022-07-23T07:20:46;99196.68;;;32.94
48894;BMP280;34710;35.798;139.446;2022-07-23T07:23:15;99202.56;;;32.81
48894;BMP280;34710;35.798;139.446;2022-07-23T07:25:44;99202.72;;;32.59
48894;BMP280;34710;35.798;139.446;2022-07-23T07:28:14;99199.35;;;32.49
48894;BMP280;34710;35.798;139.446;2022-07-23T07:30:43;99206.00;;;33.31
48894;BMP280;34710;35.798;139.446;2022-07-23T07:33:12;99207.65;;;33.58
48894;BMP280;34710;35.798;139.446;2022-07-23T07:35:42;99218.47;;;33.31
48894;BMP280;34710;35.798;139.446;2022-07-23T07:38:11;99218.91;;;32.87
48894;BMP280;34710;35.798;139.446;2022-07-23T07:40:40;99219.46;;;32.08
48894;BMP280;34710;35.798;139.446;2022-07-23T07:43:09;99217.30;;;32.84
48894;BMP280;34710;35.798;139.446;2022-07-23T07:45:39;99219.23;;;33.83
48894;BMP280;34710;35.798;139.446;2022-07-23T07:48:08;99221.54;;;34.01
48894;BMP280;34710;35.798;139.446;2022-07-23T07:50:37;99222.05;;;32.67
48894;BMP280;34710;35.798;139.446;2022-07-23T07:53:07;99226.78;;;33.02
48894;BMP280;34710;35.798;139.446;2022-07-23T07:55:36;99226.53;;;33.66
48894;BMP280;34710;35.798;139.446;2022-07-23T07:58:07;99235.04;;;33.19
48894;BMP280;34710;35.798;139.446;2022-07-23T08:00:37;99231.05;;;33.62
48894;BMP280;34710;35.798;139.446;2022-07-23T08:03:06;99226.82;;;33.60
48894;BMP280;34710;35.798;139.446;2022-07-23T08:05:36;99225.95;;;33.66
48894;BMP280;34710;35.798;139.446;2022-07-23T08:08:05;99229.19;;;34.29
48894;BMP280;34710;35.798;139.446;2022-07-23T08:10:34;99227.46;;;33.72
48894;BMP280;34710;35.798;139.446;2022-07-23T08:13:04;99230.54;;;33.30
48894;BMP280;34710;35.798;139.446;2022-07-23T08:15:33;99234.97;;;34.02
48894;BMP280;34710;35.798;139.446;2022-07-23T08:18:02;99244.35;;;33.83
48894;BMP280;34710;35.798;139.446;2022-07-23T08:20:32;99245.62;;;33.24
48894;BMP280;34710;35.798;139.446;2022-07-23T08:23:04;99244.29;;;33.82
48894;BMP280;34710;35.798;139.446;2022-07-23T08:25:35;99252.44;;;33.40
48894;BMP280;34710;35.798;139.446;2022-07-23T08:28:06;99251.94;;;32.60
48894;BMP280;34710;35.798;139.446;2022-07-23T08:30:36;99255.07;;;32.12
48894;BMP280;34710;35.798;139.446;2022-07-23T08:33:08;99256.59;;;31.98
48894;BMP280;34710;35.798;139.446;2022-07-23T08:35:40;99260.66;;;33.33
48894;BMP280;34710;35.798;139.446;2022-07-23T08:38:11;99264.85;;;33.30
48894;BMP280;34710;35.798;139.446;2022-07-23T08:40:42;99274.52;;;33.21
48894;BMP280;34710;35.798;139.446;2022-07-23T08:43:14;99280.34;;;32.32
48894;BMP280;34710;35.798;139.446;2022-07-23T08:45:46;99284.77;;;31.40
48894;BMP280;34710;35.798;139.446;2022-07-23T08:48:18;99285.50;;;31.80
48894;BMP280;34710;35.798;139.446;2022-07-23T08:50:49;99285.95;;;32.43
48894;BMP280;34710;35.798;139.446;2022-07-23T08:53:19;99292.59;;;32.26
48894;BMP280;34710;35.798;139.446;2022-07-23T08:55:51;99294.02;;;32.34
48894;BMP280;34710;35.798;139.446;2022-07-23T08:58:23;99294.83;;;32.05
48894;BMP280;34710;35.798;139.446;2022-07-23T09:00:52;99298.64;;;31.19
48894;BMP280;34710;35.798;139.446;2022-07-23T09:03:24;99301.42;;;31.85
48894;BMP280;34710;35.798;139.446;2022-07-23T09:05:54;99307.65;;;30.91
48894;BMP280;34710;35.798;139.446;2022-07-23T09:08:25;99313.60;;;31.07
48894;BMP280;34710;35.798;139.446;2022-07-23T09:10:57;99313.68;;;32.05
48894;BMP280;34710;35.798;139.446;2022-07-23T09:13:30;99317.46;;;32.37
48894;BMP280;34710;35.798;139.446;2022-07-23T09:16:02;99316.07;;;32.02
48894;BMP280;34710;35.798;139.446;2022-07-23T09:18:35;99313.69;;;32.05
48894;BMP280;34710;35.798;139.446;2022-07-23T09:21:11;99316.90;;;32.66
48894;BMP280;34710;35.798;139.446;2022-07-23T09:23:43;99323.90;;;33.32
48894;BMP280;34710;35.798;139.446;2022-07-23T09:26:27;99322.24;;;33.63
48894;BMP280;34710;35.798;139.446;2022-07-23T09:29:02;99324.02;;;33.26
48894;BMP280;34710;35.798;139.446;2022-07-23T09:31:35;99325.84;;;33.44
48894;BMP280;34710;35.798;139.446;2022-07-23T09:34:13;99326.62;;;32.24
48894;BMP280;34710;35.798;139.446;2022-07-23T09:36:43;99326.90;;;31.74
48894;BMP280;34710;35.798;139.446;2022-07-23T09:39:14;99334.03;;;33.14
48894;BMP280;34710;35.798;139.446;2022-07-23T09:41:45;99335.65;;;33.33
48894;BMP280;34710;35.798;139.446;2022-07-23T09:44:16;99341.71;;;33.85
48894;BMP280;34710;35.798;139.446;2022-07-23T09:46:48;99341.06;;;33.47
48894;BMP280;34710;35.798;139.446;2022-07-23T09:49:20;99346.28;;;33.48
48894;BMP280;34710;35.798;139.446;2022-07-23T09:51:53;99348.46;;;32.45
48894;BMP280;34710;35.798;139.446;2022-07-23T09:54:24;99346.96;;;32.56
48894;BMP280;34710;35.798;139.446;2022-07-23T09:56:55;99350.52;;;33.08
48894;BMP280;34710;35.798;139.446;2022-07-23T09:59:26;99351.74;;;33.00
48894;BMP280;34710;35.798;139.446;2022-07-23T10:01:56;99353.72;;;33.41
48894;BMP280;34710;35.798;139.446;2022-07-23T10:04:28;99361.43;;;33.52
48894;BMP280;34710;35.798;139.446;2022-07-23T10:07:00;99361.37;;;33.55
48894;BMP280;34710;35.798;139.446;2022-07-23T10:09:32;99363.85;;;33.12
48894;BMP280;34710;35.798;139.446;2022-07-23T10:12:03;99366.25;;;33.39
48894;BMP280;34710;35.798;139.446;2022-07-23T10:14:32;99369.33;;;33.78
48894;BMP280;34710;35.798;139.446;2022-07-23T10:17:02;99374.69;;;34.29
48894;BMP280;34710;35.798;139.446;2022-07-23T10:19:32;99375.85;;;33.15
48894;BMP280;34710;35.798;139.446;2022-07-23T10:22:03;99383.24;;;33.88
48894;BMP280;34710;35.798;139.446;2022-07-23T10:24:47;99389.48;;;34.54
48894;BMP280;34710;35.798;139.446;2022-07-23T10:27:49;99392.39;;;34.65
48894;BMP280;34710;35.798;139.446;2022-07-23T10:30:28;99398.87;;;35.11
48894;BMP280;34710;35.798;139.446;2022-07-23T10:33:17;99405.34;;;35.30
48894;BMP280;34710;35.798;139.446;2022-07-23T10:35:55;99411.46;;;35.25
48894;BMP280;34710;35.798;139.446;2022-07-23T10:38:32;99414.68;;;35.20
48894;BMP280;34710;35.798;139.446;2022-07-23T10:41:04;99420.72;;;35.47
48894;BMP280;34710;35.798;139.446;2022-07-23T10:43:33;99426.09;;;35.32
48894;BMP280;34710;35.798;139.446;2022-07-23T10:46:24;99430.20;;;35.22
48894;BMP280;34710;35.798;139.446;2022-07-23T10:49:26;99438.62;;;33.87
48894;BMP280;34710;35.798;139.446;2022-07-23T10:52:28;99442.93;;;35.33
48894;BMP280;34710;35.798;139.446;2022-07-23T10:55:42;99451.56;;;34.33
48894;BMP280;34710;35.798;139.446;2022-07-23T10:58:16;99457.54;;;34.20
48894;BMP280;34710;35.798;139.446;2022-07-23T11:00:46;99463.49;;;34.40
48894;BMP280;34710;35.798;139.446;2022-07-23T11:03:33;99464.43;;;33.48
48894;BMP280;34710;35.798;139.446;2022-07-23T11:06:04;99467.84;;;33.82
48894;BMP280;34710;35.798;139.446;2022-07-23T11:08:35;99470.00;;;33.71
48894;BMP280;34710;35.798;139.446;2022-07-23T11:11:10;99471.99;;;32.85
48894;BMP280;34710;35.798;139.446;2022-07-23T11:13:44;99477.33;;;33.62
48894;BMP280;34710;35.798;139.446;2022-07-23T11:16:16;99483.76;;;34.04
48894;BMP280;34710;35.798;139.446;2022-07-23T11:19:18;99483.53;;;35.15
48894;BMP280;34710;35.798;139.446;2022-07-23T11:21:49;99488.28;;;33.42
48894;BMP280;34710;35.798;139.446;2022-07-23T11:24:21;99490.05;;;34.23
48894;BMP280;34710;35.798;139.446;2022-07-23T11:26:54;99492.03;;;33.15
48894;BMP280;34710;35.798;139.446;2022-07-23T11:29:55;99496.75;;;34.33
48894;BMP280;34710;35.798;139.446;2022-07-23T11:32:31;99499.58;;;33.36
48894;BMP280;34710;35.798;139.446;2022-07-23T11:35:00;99500.07;;;33.75
48894;BMP280;34710;35.798;139.446;2022-07-23T11:37:35;99506.96;;;34.14
48894;BMP280;34710;35.798;139.446;2022-07-23T11:40:08;99512.30;;;33.63
48894;BMP280;34710;35.798;139.446;2022-07-23T11:42:40;99516.10;;;34.01
48894;BMP280;34710;35.798;139.446;2022-07-23T11:45:20;99523.56;;;33.77
48894;BMP280;34710;35.798;139.446;2022-07-23T11:47:49;99526.42;;;33.62
48894;BMP280;34710;35.798;139.446;2022-07-23T11:50:18;99529.62;;;34.16
48894;BMP280;34710;35.798;139.446;2022-07-23T11:52:47;99530.17;;;34.05
48894;BMP280;34710;35.798;139.446;2022-07-23T11:55:17;99532.44;;;34.18
48894;BMP280;34710;35.798;139.446;2022-07-23T11:57:47;99537.48;;;34.19
48894;BMP280;34710;35.798;139.446;2022-07-23T12:00:18;99542.88;;;34.20
48894;BMP280;34710;35.798;139.446;2022-07-23T12:02:50;99540.98;;;34.65
48894;BMP280;34710;35.798;139.446;2022-07-23T12:05:21;99544.13;;;34.35
48894;BMP280;34710;35.798;139.446;2022-07-23T12:07:51;99543.54;;;34.24
48894;BMP280;34710;35.798;139.446;2022-07-23T12:10:22;99545.61;;;33.97
48894;BMP280;34710;35.798;139.446;2022-07-23T12:12:54;99550.71;;;34.30
48894;BMP280;34710;35.798;139.446;2022-07-23T12:15:26;99553.35;;;34.26
48894;BMP280;34710;35.798;139.446;2022-07-23T12:17:55;99556.71;;;34.10
48894;BMP280;34710;35.798;139.446;2022-07-23T12:20:28;99562.20;;;34.39
48894;BMP280;34710;35.798;139.446;2022-07-23T12:23:00;99565.02;;;34.22
48894;BMP280;34710;35.798;139.446;2022-07-23T12:25:31;99563.67;;;34.44
48894;BMP280;34710;35.798;139.446;2022-07-23T12:28:03;99560.85;;;34.00
48894;BMP280;34710;35.798;139.446;2022-07-23T12:30:37;99560.00;;;34.40
48894;BMP280;34710;35.798;139.446;2022-07-23T12:33:08;99560.69;;;34.07
48894;BMP280;34710;35.798;139.446;2022-07-23T12:35:41;99558.54;;;34.29
48894;BMP280;34710;35.798;139.446;2022-07-23T12:38:11;99556.51;;;34.04
48894;BMP280;34710;35.798;139.446;2022-07-23T12:40:45;99556.46;;;33.94
48894;BMP280;34710;35.798;139.446;2022-07-23T12:43:22;99556.54;;;33.80
48894;BMP280;34710;35.798;139.446;2022-07-23T12:45:52;99556.90;;;33.73
48894;BMP280;34710;35.798;139.446;2022-07-23T12:48:25;99560.51;;;33.91
48894;BMP280;34710;35.798;139.446;2022-07-23T12:50:57;99562.58;;;33.32
48894;BMP280;34710;35.798;139.446;2022-07-23T12:53:29;99566.84;;;33.78
48894;BMP280;34710;35.798;139.446;2022-07-23T12:56:03;99570.65;;;33.33
48894;BMP280;34710;35.798;139.446;2022-07-23T12:58:49;99577.02;;;33.27
48894;BMP280;34710;35.798;139.446;2022-07-23T13:01:36;99575.47;;;33.40
48894;BMP280;34710;35.798;139.446;2022-07-23T13:04:07;99575.62;;;33.25
48894;BMP280;34710;35.798;139.446;2022-07-23T13:06:40;99576.42;;;33.45
48894;BMP280;34710;35.798;139.446;2022-07-23T13:09:11;99579.37;;;33.19
48894;BMP280;34710;35.798;139.446;2022-07-23T13:11:42;99579.57;;;33.36
48894;BMP280;34710;35.798;139.446;2022-07-23T13:14:12;99582.47;;;33.10
48894;BMP280;34710;35.798;139.446;2022-07-23T13:16:43;99580.31;;;32.75
48894;BMP280;34710;35.798;139.446;2022-07-23T13:19:12;99581.62;;;33.45
48894;BMP280;34710;35.798;139.446;2022-07-23T13:21:42;99581.71;;;33.01
48894;BMP280;34710;35.798;139.446;2022-07-23T13:24:12;99584.35;;;32.99
48894;BMP280;34710;35.798;139.446;2022-07-23T13:26:42;99585.57;;;32.67
48894;BMP280;34710;35.798;139.446;2022-07-23T13:29:11;99586.76;;;32.79
48894;BMP280;34710;35.798;139.446;2022-07-23T13:31:41;99594.11;;;32.75
48894;BMP280;34710;35.798;139.446;2022-07-23T13:34:11;99594.47;;;32.85
48894;BMP280;34710;35.798;139.446;2022-07-23T13:36:40;99600.64;;;33.08
48894;BMP280;34710;35.798;139.446;2022-07-23T13:39:10;99603.14;;;32.86
48894;BMP280;34710;35.798;139.446;2022-07-23T13:41:40;99604.51;;;32.41
48894;BMP280;34710;35.798;139.446;2022-07-23T13:44:09;99605.27;;;32.44
48894;BMP280;34710;35.798;139.446;2022-07-23T13:46:39;99607.29;;;31.91
48894;BMP280;34710;35.798;139.446;2022-07-23T13:49:08;99607.75;;;32.47
48894;BMP280;34710;35.798;139.446;2022-07-23T13:51:38;99609.25;;;32.16
48894;BMP280;34710;35.798;139.446;2022-07-23T13:54:07;99605.21;;;32.16
48894;BMP280;34710;35.798;139.446;2022-07-23T13:56:37;99602.84;;;32.26
48894;BMP280;34710;35.798;139.446;2022-07-23T13:59:06;99600.25;;;32.39
48894;BMP280;34710;35.798;139.446;2022-07-23T14:01:35;99594.49;;;32.49
48894;BMP280;34710;35.798;139.446;2022-07-23T14:04:05;99595.06;;;32.43
48894;BMP280;34710;35.798;139.446;2022-07-23T14:06:34;99600.30;;;32.36